createdAt,value
2022-10-23T00:01:21.566Z,8.20
2022-10-23T00:03:51.318Z,8.23
2022-10-23T00:06:20.018Z,8.52
2022-10-23T00:08:47.900Z,8.25
2022-10-23T00:11:17.092Z,8.98
2022-10-23T00:13:44.683Z,8.65
2022-10-23T00:16:11.899Z,10.15
2022-10-23T00:18:39.755Z,9.77
2022-10-23T00:21:07.979Z,9.52
2022-10-23T00:23:35.406Z,8.45
2022-10-23T00:26:03.151Z,9.02
2022-10-23T00:28:30.825Z,8.95
2022-10-23T00:30:58.069Z,8.55
2022-10-23T00:33:25.531Z,8.77
2022-10-23T00:35:52.606Z,9.45
2022-10-23T00:38:19.910Z,9.38
2022-10-23T00:40:47.219Z,8.57
2022-10-23T00:43:18.087Z,9.15
2022-10-23T00:45:45.418Z,9.18
2022-10-23T00:48:13.051Z,9.55
2022-10-23T00:50:41.034Z,8.93
2022-10-23T00:53:08.441Z,9.15
2022-10-23T00:55:36.599Z,9.80
2022-10-23T00:58:03.992Z,9.10
2022-10-23T01:00:41.266Z,9.38
2022-10-23T01:03:08.586Z,8.88
2022-10-23T01:05:40.908Z,8.80
2022-10-23T01:08:12.932Z,8.68
2022-10-23T01:10:48.532Z,8.98
2022-10-23T01:13:34.144Z,8.25
2022-10-23T01:16:06.595Z,7.78
2022-10-23T01:18:40.878Z,9.50
2022-10-23T01:21:11.067Z,9.65
2022-10-23T01:23:47.889Z,8.38
2022-10-23T01:26:22.260Z,9.75
2022-10-23T01:28:52.128Z,8.50
2022-10-23T01:31:23.887Z,9.02
2022-10-23T01:33:59.846Z,8.57
2022-10-23T01:36:30.129Z,8.70
2022-10-23T01:38:59.802Z,8.80
2022-10-23T01:41:33.417Z,8.48
2022-10-23T01:44:12.830Z,7.85
2022-10-23T01:46:40.887Z,7.75
2022-10-23T01:49:10.022Z,7.75
2022-10-23T01:51:38.627Z,8.35
2022-10-23T01:54:08.104Z,7.82
2022-10-23T01:56:36.845Z,7.85
2022-10-23T01:59:09.653Z,8.90
2022-10-23T02:01:38.141Z,9.07
2022-10-23T02:04:09.281Z,8.73
2022-10-23T02:06:36.594Z,8.02
2022-10-23T02:09:04.112Z,7.75
2022-10-23T02:11:32.824Z,7.80
2022-10-23T02:14:03.043Z,6.68
2022-10-23T02:16:36.296Z,6.45
2022-10-23T02:19:05.474Z,6.30
2022-10-23T02:21:38.924Z,7.38
2022-10-23T02:24:14.473Z,6.32
2022-10-23T02:26:49.488Z,6.90
2022-10-23T02:29:19.433Z,6.97
2022-10-23T02:31:46.995Z,6.95
2022-10-23T02:34:14.285Z,6.53
2022-10-23T02:36:41.657Z,6.93
2022-10-23T02:39:08.825Z,6.95
2022-10-23T02:41:47.775Z,7.47
2022-10-23T02:44:18.257Z,7.20
2022-10-23T02:46:48.445Z,6.55
2022-10-23T02:49:26.010Z,6.43
2022-10-23T02:52:02.524Z,6.22
2022-10-23T02:54:29.893Z,6.90
2022-10-23T02:57:12.091Z,7.03
2022-10-23T02:59:46.476Z,7.00
2022-10-23T03:02:25.903Z,6.32
2022-10-23T03:04:54.625Z,5.60
2022-10-23T03:07:22.320Z,6.30
2022-10-23T03:09:49.672Z,5.53
2022-10-23T03:12:17.049Z,5.53
2022-10-23T03:14:44.250Z,5.78
2022-10-23T03:17:11.693Z,6.18
2022-10-23T03:19:38.936Z,6.60
2022-10-23T03:22:06.605Z,5.90
2022-10-23T03:24:34.022Z,6.15
2022-10-23T03:27:01.350Z,6.28
2022-10-23T03:29:28.763Z,6.40
2022-10-23T03:31:56.025Z,6.50
2022-10-23T03:34:23.386Z,6.88
2022-10-23T03:36:50.795Z,7.63
2022-10-23T03:39:17.897Z,6.90
2022-10-23T03:41:44.978Z,6.95
2022-10-23T03:44:12.283Z,7.70
2022-10-23T03:46:39.540Z,7.45
2022-10-23T03:49:07.168Z,7.03
2022-10-23T03:51:34.495Z,7.32
2022-10-23T03:54:02.870Z,7.13
2022-10-23T03:56:30.264Z,7.35
2022-10-23T03:58:57.623Z,7.53
2022-10-23T04:01:25.161Z,7.97
2022-10-23T04:03:52.878Z,8.05
2022-10-23T04:06:20.150Z,6.70
2022-10-23T04:08:47.637Z,7.13
2022-10-23T04:11:14.737Z,7.47
2022-10-23T04:13:41.902Z,7.35
2022-10-23T04:16:09.355Z,7.57
2022-10-23T04:18:36.642Z,7.20
2022-10-23T04:21:04.369Z,6.93
2022-10-23T04:23:32.644Z,7.32
2022-10-23T04:25:59.930Z,6.63
2022-10-23T04:28:27.560Z,7.07
2022-10-23T04:30:55.125Z,7.43
2022-10-23T04:33:22.425Z,7.35
2022-10-23T04:35:49.649Z,6.93
2022-10-23T04:38:16.915Z,7.00
2022-10-23T04:40:44.344Z,7.82
2022-10-23T04:43:11.878Z,7.43
2022-10-23T04:45:40.125Z,6.60
2022-10-23T04:48:07.251Z,7.00
2022-10-23T04:50:34.561Z,6.72
2022-10-23T04:53:01.822Z,6.80
2022-10-23T04:55:29.134Z,6.13
2022-10-23T04:57:56.325Z,6.82
2022-10-23T05:00:23.754Z,6.50
2022-10-23T05:02:51.018Z,5.90
2022-10-23T05:05:19.021Z,8.20
2022-10-23T05:07:46.285Z,6.25
2022-10-23T05:10:13.726Z,6.43
2022-10-23T05:12:41.090Z,6.63
2022-10-23T05:15:08.591Z,6.15
2022-10-23T05:17:38.455Z,6.10
2022-10-23T05:20:08.431Z,6.63
2022-10-23T05:22:37.759Z,6.15
2022-10-23T05:25:05.722Z,5.90
2022-10-23T05:27:33.040Z,6.28
2022-10-23T05:30:00.281Z,6.15
2022-10-23T05:32:28.632Z,6.57
2022-10-23T05:34:57.630Z,6.05
2022-10-23T05:37:25.025Z,6.15
2022-10-23T05:39:52.794Z,6.07
2022-10-23T05:42:20.223Z,5.63
2022-10-23T05:44:47.374Z,5.60
2022-10-23T05:47:14.571Z,6.15
2022-10-23T05:49:41.654Z,5.97
2022-10-23T05:52:11.406Z,6.38
2022-10-23T05:54:38.549Z,6.63
2022-10-23T05:57:05.832Z,6.47
2022-10-23T05:59:33.087Z,7.03
2022-10-23T06:02:00.632Z,6.88
2022-10-23T06:04:28.105Z,6.40
2022-10-23T06:06:55.512Z,6.28
2022-10-23T06:09:22.889Z,6.03
2022-10-23T06:11:51.285Z,5.60
2022-10-23T06:14:18.790Z,6.40
2022-10-23T06:16:46.136Z,6.32
2022-10-23T06:19:13.378Z,5.75
2022-10-23T06:21:41.179Z,5.88
2022-10-23T06:24:08.506Z,6.10
2022-10-23T06:26:36.860Z,6.40
2022-10-23T06:29:04.429Z,5.60
2022-10-23T06:31:31.828Z,6.03
2022-10-23T06:33:59.977Z,6.10
2022-10-23T06:36:27.603Z,6.60
2022-10-23T06:38:56.393Z,6.28
2022-10-23T06:41:23.960Z,6.85
2022-10-23T06:43:52.432Z,7.20
2022-10-23T06:46:19.564Z,6.65
2022-10-23T06:48:47.256Z,7.28
2022-10-23T06:51:17.056Z,6.75
2022-10-23T06:53:45.362Z,6.63
2022-10-23T06:56:13.355Z,6.10
2022-10-23T06:58:41.552Z,7.32
2022-10-23T07:01:10.924Z,7.30
2022-10-23T07:03:38.302Z,7.78
2022-10-23T07:06:06.676Z,7.38
2022-10-23T07:08:34.644Z,7.32
2022-10-23T07:11:05.906Z,7.28
2022-10-23T07:16:00.727Z,7.30
2022-10-23T07:18:27.908Z,7.22
2022-10-23T07:20:58.967Z,7.00
2022-10-23T07:23:26.131Z,6.95
2022-10-23T07:25:53.511Z,7.53
2022-10-23T07:28:20.762Z,7.25
2022-10-23T07:30:56.955Z,7.72
2022-10-23T07:33:24.065Z,6.97
2022-10-23T07:35:51.209Z,7.28
2022-10-23T07:38:18.617Z,7.45
2022-10-23T07:40:46.607Z,6.78
2022-10-23T07:43:14.106Z,6.45
2022-10-23T07:45:41.400Z,7.65
2022-10-23T07:48:08.696Z,6.95
2022-10-23T07:50:38.494Z,7.40
2022-10-23T07:53:05.908Z,7.80
2022-10-23T07:55:33.463Z,7.85
2022-10-23T07:58:00.692Z,6.72
2022-10-23T08:00:35.388Z,6.20
2022-10-23T08:03:09.718Z,6.60
2022-10-23T08:05:39.870Z,5.65
2022-10-23T08:08:10.313Z,5.38
2022-10-23T08:10:39.656Z,6.53
2022-10-23T08:13:20.294Z,5.68
2022-10-23T08:15:51.667Z,5.82
2022-10-23T08:21:15.554Z,6.05
2022-10-23T08:23:44.263Z,5.60
2022-10-23T08:26:14.559Z,6.20
2022-10-23T08:28:42.322Z,6.07
2022-10-23T08:31:19.520Z,5.47
2022-10-23T08:33:47.284Z,5.78
2022-10-23T08:36:19.534Z,5.20
2022-10-23T08:38:49.937Z,5.38
2022-10-23T08:41:25.834Z,5.15
2022-10-23T08:44:09.044Z,4.82
2022-10-23T08:46:44.278Z,4.80
2022-10-23T08:49:31.497Z,5.75
2022-10-23T08:52:01.110Z,5.07
2022-10-23T08:54:49.549Z,5.25
2022-10-23T08:57:29.003Z,5.50
2022-10-23T09:00:06.421Z,5.55
2022-10-23T09:02:37.229Z,5.63
2022-10-23T09:05:20.958Z,5.20
2022-10-23T09:08:10.489Z,5.18
2022-10-23T09:10:39.353Z,4.55
2022-10-23T09:13:16.771Z,4.40
2022-10-23T09:15:51.887Z,4.68
2022-10-23T09:18:20.522Z,4.30
2022-10-23T09:20:55.666Z,4.55
2022-10-23T09:23:30.858Z,4.13
2022-10-23T09:26:03.880Z,4.10
2022-10-23T09:28:34.739Z,4.45
2022-10-23T09:31:16.882Z,4.28
2022-10-23T09:33:55.786Z,4.25
2022-10-23T09:36:26.456Z,4.68
2022-10-23T09:38:56.683Z,5.15
2022-10-23T09:41:36.622Z,4.63
2022-10-23T09:44:24.165Z,4.75
2022-10-23T09:46:54.511Z,4.20
2022-10-23T09:49:32.694Z,3.83
2022-10-23T09:52:24.314Z,3.70
2022-10-23T09:54:57.089Z,4.15
2022-10-23T09:57:29.975Z,3.55
2022-10-23T10:00:01.844Z,3.90
2022-10-23T10:02:30.330Z,3.40
2022-10-23T10:04:58.693Z,3.67
2022-10-23T10:07:34.778Z,3.83
2022-10-23T10:10:13.983Z,3.45
2022-10-23T10:12:52.497Z,4.60
2022-10-23T10:15:37.985Z,3.30
2022-10-23T10:18:10.647Z,3.40
2022-10-23T10:20:50.902Z,3.50
2022-10-23T10:23:34.550Z,3.87
2022-10-23T10:26:07.961Z,3.40
2022-10-23T10:28:54.084Z,3.40
2022-10-23T10:31:25.088Z,3.22
2022-10-23T10:36:36.445Z,3.13
2022-10-23T10:39:06.230Z,3.28
2022-10-23T10:41:43.039Z,3.72
2022-10-23T10:44:33.691Z,2.95
2022-10-23T10:47:12.612Z,3.25
2022-10-23T10:49:42.611Z,3.03
2022-10-23T10:52:10.944Z,3.42
2022-10-23T10:55:00.213Z,3.00
2022-10-23T10:57:46.269Z,3.00
2022-10-23T11:00:17.758Z,3.20
2022-10-23T11:05:35.867Z,2.60
2022-10-23T11:08:30.292Z,2.58
2022-10-23T11:11:09.219Z,3.53
2022-10-23T11:13:41.287Z,2.95
2022-10-23T11:16:21.451Z,2.50
2022-10-23T11:19:11.246Z,2.77
2022-10-23T11:21:54.541Z,2.70
2022-10-23T11:24:45.393Z,2.85
2022-10-23T11:27:26.216Z,2.65
2022-10-23T11:30:14.856Z,2.90
2022-10-23T11:32:42.626Z,2.83
2022-10-23T11:35:31.599Z,2.50
2022-10-23T11:38:01.013Z,2.47
2022-10-23T11:40:28.506Z,2.30
2022-10-23T11:42:56.678Z,2.20
2022-10-23T11:45:31.754Z,2.53
2022-10-23T11:48:04.417Z,2.25
2022-10-23T11:50:59.114Z,2.33
2022-10-23T11:53:31.937Z,2.75
2022-10-23T11:56:00.889Z,2.50
2022-10-23T11:58:32.421Z,2.22
2022-10-23T12:01:02.013Z,2.22
2022-10-23T12:03:35.797Z,2.20
2022-10-23T12:06:05.145Z,2.08
2022-10-23T12:08:34.565Z,2.10
2022-10-23T12:11:01.983Z,2.40
2022-10-23T12:13:31.417Z,2.30
2022-10-23T12:16:00.918Z,2.40
2022-10-23T12:18:29.079Z,2.20
2022-10-23T12:21:00.362Z,2.20
2022-10-23T12:23:27.621Z,2.70
2022-10-23T12:26:03.880Z,2.58
2022-10-23T12:28:49.316Z,2.75
2022-10-23T12:31:16.482Z,2.25
2022-10-23T12:33:46.904Z,2.35
2022-10-23T12:36:23.412Z,2.35
2022-10-23T12:38:50.933Z,2.50
2022-10-23T12:41:20.259Z,2.53
2022-10-23T12:43:52.424Z,2.50
2022-10-23T12:46:28.879Z,2.80
2022-10-23T12:48:57.228Z,2.67
2022-10-23T12:51:26.179Z,2.60
2022-10-23T12:53:54.495Z,2.75
2022-10-23T12:56:22.207Z,2.90
2022-10-23T12:58:54.077Z,3.25
2022-10-23T13:01:34.897Z,2.50
2022-10-23T13:04:22.737Z,2.67
2022-10-23T13:06:50.844Z,2.30
2022-10-23T13:09:28.248Z,2.63
2022-10-23T13:11:56.892Z,2.50
2022-10-23T13:14:30.946Z,2.78
2022-10-23T13:17:02.024Z,2.60
2022-10-23T13:19:29.247Z,2.70
2022-10-23T13:21:56.779Z,2.47
2022-10-23T13:24:25.557Z,2.53
2022-10-23T13:26:55.059Z,2.30
2022-10-23T13:29:30.345Z,2.60
2022-10-23T13:31:57.688Z,2.70
2022-10-23T13:34:26.988Z,2.28
2022-10-23T13:36:56.029Z,2.60
2022-10-23T13:39:24.100Z,2.55
2022-10-23T13:41:51.542Z,2.38
2022-10-23T13:44:20.285Z,2.20
2022-10-23T13:46:48.432Z,2.10
2022-10-23T13:49:16.342Z,2.20
2022-10-23T13:51:53.760Z,1.98
2022-10-23T13:54:23.708Z,2.20
2022-10-23T13:56:51.643Z,2.42
2022-10-23T13:59:19.074Z,2.35
2022-10-23T14:01:48.626Z,2.88
2022-10-23T14:04:16.795Z,2.80
2022-10-23T14:06:44.463Z,2.10
2022-10-23T14:09:13.255Z,2.58
2022-10-23T14:11:40.816Z,2.13
2022-10-23T14:14:07.995Z,2.03
2022-10-23T14:16:35.341Z,2.17
2022-10-23T14:19:03.901Z,2.58
2022-10-23T14:21:31.695Z,2.10
2022-10-23T14:23:59.076Z,2.30
2022-10-23T14:26:28.955Z,2.25
2022-10-23T14:28:57.552Z,2.75
2022-10-23T14:31:26.944Z,1.90
2022-10-23T14:33:55.989Z,1.95
2022-10-23T14:36:23.886Z,2.33
2022-10-23T14:38:55.438Z,2.33
2022-10-23T14:41:23.093Z,2.50
2022-10-23T14:43:50.377Z,2.38
2022-10-23T14:46:18.831Z,2.92
2022-10-23T14:48:48.189Z,2.33
2022-10-23T14:51:25.789Z,2.70
2022-10-23T14:53:58.853Z,2.42
2022-10-23T14:56:26.612Z,2.30
2022-10-23T14:58:54.148Z,2.20
2022-10-23T15:01:21.450Z,2.42
2022-10-23T15:03:54.622Z,2.00
2022-10-23T15:06:22.028Z,2.28
2022-10-23T15:08:55.104Z,2.25
2022-10-23T15:11:22.986Z,2.33
2022-10-23T15:13:50.613Z,2.13
2022-10-23T15:16:18.450Z,2.40
2022-10-23T15:18:45.668Z,2.67
2022-10-23T15:21:13.474Z,2.30
2022-10-23T15:23:41.585Z,2.17
2022-10-23T15:26:10.391Z,2.30
2022-10-23T15:28:37.612Z,2.50
2022-10-23T15:31:05.499Z,2.50
2022-10-23T15:33:32.903Z,2.40
2022-10-23T15:36:00.299Z,2.20
2022-10-23T15:38:27.528Z,2.45
2022-10-23T15:40:59.120Z,2.15
2022-10-23T15:43:26.525Z,2.47
2022-10-23T15:45:53.723Z,2.47
2022-10-23T15:48:21.166Z,2.42
2022-10-23T15:50:48.788Z,2.70
2022-10-23T15:53:16.054Z,2.50
2022-10-23T15:55:43.501Z,3.25
2022-10-23T15:58:11.393Z,3.42
2022-10-23T16:00:39.672Z,2.63
2022-10-23T16:03:07.082Z,2.80
2022-10-23T16:05:34.703Z,2.72
2022-10-23T16:08:02.318Z,2.67
2022-10-23T16:10:29.498Z,2.42
2022-10-23T16:12:56.800Z,2.53
2022-10-23T16:15:24.272Z,2.78
2022-10-23T16:17:51.714Z,2.35
2022-10-23T16:20:20.878Z,2.50
2022-10-23T16:22:48.220Z,2.53
2022-10-23T16:25:15.777Z,3.38
2022-10-23T16:27:43.611Z,2.40
2022-10-23T16:30:14.065Z,2.90
2022-10-23T16:32:41.816Z,2.90
2022-10-23T16:35:12.334Z,2.50
2022-10-23T16:37:40.304Z,2.40
2022-10-23T16:40:07.999Z,2.75
2022-10-23T16:42:35.229Z,2.63
2022-10-23T16:45:02.663Z,3.03
2022-10-23T16:47:31.774Z,2.95
2022-10-23T16:49:58.941Z,2.78
2022-10-23T16:52:26.129Z,2.88
2022-10-23T16:54:53.439Z,3.63
2022-10-23T16:57:20.735Z,3.13
2022-10-23T16:59:48.174Z,3.15
2022-10-23T17:02:15.524Z,3.00
2022-10-23T17:04:42.818Z,3.30
2022-10-23T17:07:10.116Z,3.00
2022-10-23T17:09:38.408Z,2.65
2022-10-23T17:12:06.721Z,3.80
2022-10-23T17:14:34.183Z,3.20
2022-10-23T17:17:01.603Z,3.70
2022-10-23T17:19:45.857Z,3.20
2022-10-23T17:22:14.220Z,3.35
2022-10-23T17:24:42.153Z,3.08
2022-10-23T17:27:10.234Z,2.72
2022-10-23T17:29:37.592Z,3.00
2022-10-23T17:32:04.752Z,2.92
2022-10-23T17:34:32.030Z,3.17
2022-10-23T17:36:59.355Z,2.70
2022-10-23T17:39:27.268Z,3.13
2022-10-23T17:41:55.475Z,3.00
2022-10-23T17:44:22.834Z,2.80
2022-10-23T17:46:53.771Z,3.17
2022-10-23T17:51:52.197Z,2.78
2022-10-23T17:54:19.416Z,3.20
2022-10-23T17:56:46.715Z,2.65
2022-10-23T17:59:14.986Z,2.85
2022-10-23T18:01:43.894Z,3.00
2022-10-23T18:04:11.169Z,3.38
2022-10-23T18:06:42.672Z,3.28
2022-10-23T18:09:09.833Z,2.88
2022-10-23T18:11:41.444Z,3.10
2022-10-23T18:14:11.592Z,3.35
2022-10-23T18:16:40.552Z,3.67
2022-10-23T18:19:07.774Z,3.50
2022-10-23T18:21:36.429Z,3.38
2022-10-23T18:24:03.982Z,5.68
2022-10-23T18:26:35.151Z,3.47
2022-10-23T18:29:07.105Z,3.40
2022-10-23T18:31:35.652Z,4.05
2022-10-23T18:34:05.082Z,3.45
2022-10-23T18:36:34.602Z,2.85
2022-10-23T18:39:02.117Z,3.20
2022-10-23T18:41:33.502Z,4.57
2022-10-23T18:44:00.597Z,4.13
2022-10-23T18:46:27.911Z,3.30
2022-10-23T18:48:55.051Z,3.58
2022-10-23T18:51:24.633Z,3.03
2022-10-23T18:53:55.683Z,2.90
2022-10-23T18:56:27.461Z,3.08
2022-10-23T18:59:06.796Z,3.67
2022-10-23T19:01:57.416Z,2.72
2022-10-23T19:04:27.610Z,3.13
2022-10-23T19:07:05.595Z,3.03
2022-10-23T19:09:34.914Z,2.80
2022-10-23T19:14:42.248Z,2.40
2022-10-23T19:17:21.315Z,2.28
2022-10-23T19:20:01.095Z,2.53
2022-10-23T19:22:43.700Z,1.73
2022-10-23T19:25:26.197Z,2.30
2022-10-23T19:27:59.733Z,2.53
2022-10-23T19:30:28.377Z,2.45
2022-10-23T19:32:59.736Z,2.88
2022-10-23T19:35:34.327Z,2.88
2022-10-23T19:38:08.222Z,2.90
2022-10-23T19:40:36.564Z,2.75
2022-10-23T19:43:07.866Z,2.35
2022-10-23T19:45:40.768Z,1.80
2022-10-23T19:48:17.472Z,2.30
2022-10-23T19:51:02.279Z,3.08
2022-10-23T19:53:35.882Z,2.45
2022-10-23T19:56:12.000Z,2.55
2022-10-23T19:58:43.489Z,2.22
2022-10-23T20:01:14.532Z,2.08
2022-10-23T20:06:39.169Z,1.80
2022-10-23T20:09:13.242Z,1.95
2022-10-23T20:11:48.123Z,1.70
2022-10-23T20:14:37.205Z,1.58
2022-10-23T20:17:08.373Z,1.58
2022-10-23T20:19:45.965Z,1.85
2022-10-23T20:22:24.475Z,1.50
2022-10-23T20:24:58.384Z,1.45
2022-10-23T20:27:29.421Z,1.20
2022-10-23T20:35:11.342Z,1.20
2022-10-23T20:37:47.604Z,1.27
2022-10-23T20:40:25.887Z,1.30
2022-10-23T20:43:02.517Z,1.48
2022-10-23T20:45:30.825Z,1.48
2022-10-23T20:47:57.961Z,1.55
2022-10-23T20:50:26.300Z,1.23
2022-10-23T20:52:53.378Z,1.45
2022-10-23T20:55:20.711Z,1.50
2022-10-23T20:57:48.111Z,1.30
2022-10-23T21:00:15.726Z,1.40
2022-10-23T21:02:47.202Z,1.63
2022-10-23T21:05:17.416Z,1.10
2022-10-23T21:07:45.953Z,1.50
2022-10-23T21:10:13.026Z,1.35
2022-10-23T21:12:40.330Z,1.70
2022-10-23T21:15:08.041Z,1.40
2022-10-23T21:17:38.709Z,1.50
2022-10-23T21:20:06.346Z,1.33
2022-10-23T21:22:33.657Z,1.42
2022-10-23T21:25:01.683Z,1.50
2022-10-23T21:27:29.159Z,1.73
2022-10-23T21:29:56.286Z,1.20
2022-10-23T21:32:23.452Z,1.25
2022-10-23T21:34:50.644Z,1.58
2022-10-23T21:37:17.746Z,1.80
2022-10-23T21:39:45.102Z,1.60
2022-10-23T21:42:13.274Z,1.38
2022-10-23T21:44:40.761Z,1.40
2022-10-23T21:47:07.869Z,1.50
2022-10-23T21:49:38.491Z,1.60
2022-10-23T21:52:05.721Z,1.30
2022-10-23T21:54:33.437Z,1.10
2022-10-23T21:57:03.296Z,1.95
2022-10-23T21:59:33.145Z,1.40
2022-10-23T22:02:02.848Z,1.50
2022-10-23T22:04:30.205Z,1.80
2022-10-23T22:06:57.366Z,1.80
2022-10-23T22:09:24.627Z,1.60
2022-10-23T22:11:52.935Z,1.67
2022-10-23T22:14:20.600Z,1.40
2022-10-23T22:16:48.262Z,1.92
2022-10-23T22:19:20.905Z,1.38
2022-10-23T22:21:48.757Z,1.73
2022-10-23T22:24:17.466Z,1.60
2022-10-23T22:26:46.287Z,1.58
2022-10-23T22:29:15.574Z,1.77
2022-10-23T22:31:45.566Z,1.95
2022-10-23T22:34:28.692Z,1.65
2022-10-23T22:37:06.729Z,1.90
2022-10-23T22:39:33.874Z,1.88
2022-10-23T22:42:01.338Z,2.05
2022-10-23T22:44:28.544Z,1.92
2022-10-23T22:46:56.055Z,2.08
2022-10-23T22:49:23.293Z,2.05
2022-10-23T22:51:50.655Z,1.95
2022-10-23T22:54:17.747Z,2.20
2022-10-23T22:56:45.112Z,2.13
2022-10-23T22:59:12.232Z,2.08
2022-10-23T23:01:41.958Z,2.30
2022-10-23T23:04:26.081Z,2.38
2022-10-23T23:06:56.895Z,2.55
2022-10-23T23:09:24.126Z,2.20
2022-10-23T23:11:52.468Z,2.40
2022-10-23T23:14:23.565Z,2.30
2022-10-23T23:16:52.470Z,2.70
2022-10-23T23:19:19.883Z,2.40
2022-10-23T23:21:47.447Z,2.35
2022-10-23T23:24:15.241Z,3.03
2022-10-23T23:26:42.613Z,2.83
2022-10-23T23:29:09.942Z,2.42
2022-10-23T23:31:37.042Z,2.90
2022-10-23T23:34:04.583Z,2.80
2022-10-23T23:36:32.689Z,3.10
2022-10-23T23:39:00.477Z,2.97
2022-10-23T23:41:28.445Z,2.90
2022-10-23T23:43:56.925Z,2.60
2022-10-23T23:46:24.469Z,3.30
2022-10-23T23:48:51.764Z,3.08
2022-10-23T23:51:20.400Z,2.85
2022-10-23T23:53:48.669Z,3.13
2022-10-23T23:56:16.057Z,2.72
2022-10-23T23:58:43.467Z,3.22
